Impacts TAF Board INFO
FOR SITUATIONAL AWARENESS. NOT TO BE USED FOR FLIGHT PLANNING PURPOSES.
IDs:

KDEN - Denver Intl, CO, US

Issued at 1732 UTC 25 Feb 2018
Updated at 1746 UTC 25 Feb 2018
Potential Impact None Slight Moderate High
Time1653Z 25/18Z 25/19Z 25/20Z 25/21Z 25/22Z 25/23Z 26/00Z 26/01Z 26/02Z 26/03Z 26/04Z 26/05Z 26/06Z>>
Type OBS PRVL PRVL PRVL PRVL PRVL PRVL PRVL PRVL PRVL PRVL PRVL PRVL PRVL
VIS 10 >6 >6 >6 >6 >6 >6 >6 >6 >6 >6 >6 >6 >6
CIG -- -- -- -- -- -- -- -- -- -- -- -- -- --
Cover FEW FEW FEW FEW FEW FEW FEW FEW FEW SCT SCT SCT SCT SCT
FltCat VFR VFR VFR VFR VFR VFR VFR VFR VFR VFR VFR VFR VFR VFR
WX -- -- -- -- -- -- -- -- -- -- -- -- -- --
WDir 270 260 260 260 260 260 260 250 250 210 210 210 210 210
WSpd 18 17 17 17 17 17 17 13 13 9 9 9 9 9
WGst 31 34 34 34 34 34 34 -- -- -- -- -- -- --

Raw TAF
KDEN 251732Z 2518/2624 26017G34KT P6SM FEW080 FEW120
  FM260000 25013KT P6SM FEW100 FEW220
  FM260200 21009KT P6SM SCT220
  FM261400 VRB05KT P6SM SCT220
  FM261800 02006KT P6SM FEW100 SCT220


Raw METAR
KDEN 251653Z 27018G31KT 10SM FEW080 FEW120 01/M17 A2990 RMK AO2 PK WND 25037/1631 SLP140 T00111167 $
KDEN 251553Z 26018G26KT 10SM FEW080 FEW220 M01/M16 A2990 RMK AO2 PK WND 26026/1549 SLP142 T10061156 $
KDEN 251453Z 26014KT 10SM FEW080 FEW220 M02/M15 A2988 RMK AO2 SLP136 T10221150 53016 $

METAR Board
Radar Display
Forecast Discussion

FOR SITUATIONAL AWARENESS. NOT TO BE USED FOR FLIGHT PLANNING PURPOSES.